Time;durP1;ratioP1;P1;durP2;ratioP2;P2;SDS_P1;SDS_P2;PMS_P1;PMS_P2;Temp;Humidity;BMP_temperature;BMP_pressure;BME280_temperature;BME280_humidity;BME280_pressure;Samples;Min_cycle;Max_cycle;Signal;HPM_P1;HPM_P2
2023/08/10 00:02:48;;;;;;;3.03;2.03;;;;;;;-140.66;100.00;55571.53;5135270;27;20038;-73
2023/08/10 00:06:32;;;;;;;4.20;2.20;;;;;;;-140.66;100.00;55571.53;5134566;27;20460;-73
2023/08/10 00:10:16;;;;;;;4.70;2.40;;;;;;;-140.66;100.00;55571.53;5134612;27;20035;-73
2023/08/10 00:14:01;;;;;;;2.33;2.00;;;;;;;-140.66;100.00;55571.53;5135392;27;20113;-73
2023/08/10 00:17:41;;;;;;;3.55;2.08;;;;;;;-140.66;100.00;55571.53;5134999;27;20027;-73
2023/08/10 00:21:26;;;;;;;3.92;2.15;;;;;;;-140.66;100.00;55571.53;5134793;27;20106;-73
2023/08/10 00:25:10;;;;;;;4.13;2.10;;;;;;;-140.66;100.00;55571.53;5134352;27;20031;-73
2023/08/10 00:28:55;;;;;;;3.58;2.15;;;;;;;-140.66;100.00;55571.53;5134648;27;20174;-72
2023/08/10 00:32:39;;;;;;;2.80;2.10;;;;;;;-140.66;100.00;55571.53;5134385;27;20325;-73
2023/08/10 00:36:23;;;;;;;3.22;2.38;;;;;;;-140.66;100.00;55571.53;5134196;27;20472;-73
2023/08/10 00:40:12;;;;;;;3.50;2.20;;;;;;;-140.66;100.00;55571.53;5134878;28;20063;-72
2023/08/10 00:43:56;;;;;;;2.95;1.88;;;;;;;-140.66;100.00;55571.53;5134124;28;20468;-73
2023/08/10 00:47:41;;;;;;;4.68;2.13;;;;;;;-140.66;100.00;55571.53;5133711;28;20511;-72
2023/08/10 00:51:26;;;;;;;4.45;2.20;;;;;;;-140.66;100.00;55571.53;5134997;28;20043;-73
2023/08/10 00:55:10;;;;;;;5.53;2.55;;;;;;;-140.66;100.00;55571.53;5133778;28;20035;-73
2023/08/10 00:58:55;;;;;;;4.57;2.40;;;;;;;-140.66;100.00;55571.53;5134350;28;20031;-72
2023/08/10 01:02:39;;;;;;;2.90;2.20;;;;;;;-140.66;100.00;55571.53;5134073;28;20459;-73
2023/08/10 01:06:28;;;;;;;4.30;2.35;;;;;;;-140.66;100.00;55571.53;5133828;28;20168;-73
2023/08/10 01:10:20;;;;;;;5.65;2.70;;;;;;;-140.66;100.00;55571.53;5135077;27;20031;-71
2023/08/10 01:14:09;;;;;;;4.88;2.80;;;;;;;-140.66;100.00;55571.53;5138188;27;20080;-73
2023/08/10 01:17:56;;;;;;;6.65;3.10;;;;;;;-140.66;100.00;55571.53;5137621;27;20015;-72
2023/08/10 01:21:58;;;;;;;5.32;2.88;;;;;;;-140.66;100.00;55571.53;5138143;27;20019;-73
2023/08/10 01:25:42;;;;;;;4.95;3.85;;;;;;;-140.66;100.00;55571.53;5138107;27;20039;-73
2023/08/10 01:29:27;;;;;;;6.05;3.65;;;;;;;-140.66;100.00;55571.53;5137422;27;20018;-73
2023/08/10 01:33:09;;;;;;;6.15;3.33;;;;;;;-140.66;100.00;55571.53;5137582;27;20472;-73
2023/08/10 01:36:48;;;;;;;6.30;4.30;;;;;;;-140.66;100.00;55571.53;5137780;27;20121;-72
2023/08/10 01:40:32;;;;;;;9.68;4.00;;;;;;;-140.66;100.00;55571.53;5137901;27;20030;-72
2023/08/10 01:44:15;;;;;;;11.75;4.80;;;;;;;-140.66;100.00;55571.53;5137444;27;20073;-73
2023/08/10 01:48:25;;;;;;;5.30;3.90;;;;;;;-140.66;100.00;55571.53;5137404;27;20047;-73
2023/08/10 01:52:11;;;;;;;4.78;3.50;;;;;;;-140.66;100.00;55571.53;5138011;27;20068;-72
2023/08/10 01:55:56;;;;;;;6.97;3.20;;;;;;;-140.66;100.00;55571.53;5137726;27;20030;-72
2023/08/10 01:59:40;;;;;;;6.13;3.38;;;;;;;-140.66;100.00;55571.53;5135972;27;20029;-73
2023/08/10 02:03:24;;;;;;;5.43;2.95;;;;;;;-140.66;100.00;55571.53;5137320;27;20364;-72
2023/08/10 02:07:08;;;;;;;5.57;2.45;;;;;;;-140.66;100.00;55571.53;5137697;27;20023;-71
2023/08/10 02:10:52;;;;;;;10.90;2.47;;;;;;;-140.66;100.00;55571.53;5136927;27;20407;-72
2023/08/10 02:14:37;;;;;;;4.95;2.83;;;;;;;-140.66;100.00;55571.53;5139234;27;20019;-71
2023/08/10 02:18:21;;;;;;;4.07;2.55;;;;;;;-140.66;100.00;55571.53;5147930;27;20023;-72
2023/08/10 02:22:05;;;;;;;6.22;3.03;;;;;;;-140.66;100.00;55571.53;5136454;27;20119;-72
2023/08/10 02:24:57;;;;;;;9.13;3.10;;;;;;;-140.66;100.00;55571.53;5137601;27;20023;-72
2023/08/10 02:28:37;;;;;;;5.00;3.35;;;;;;;-140.66;100.00;55571.53;5136548;27;20037;-72
2023/08/10 02:32:16;;;;;;;6.20;3.35;;;;;;;-140.66;100.00;55571.53;5136844;27;20447;-73
2023/08/10 02:36:00;;;;;;;10.52;3.47;;;;;;;-140.66;100.00;55571.53;5150923;27;20055;-73
2023/08/10 02:39:45;;;;;;;8.25;2.90;;;;;;;-140.66;100.00;55571.53;5135952;27;20023;-72
2023/08/10 02:43:29;;;;;;;6.85;3.67;;;;;;;-140.66;100.00;55571.53;5137176;27;20114;-73
2023/08/10 02:47:13;;;;;;;4.85;3.53;;;;;;;-140.66;100.00;55571.53;5136778;27;20071;-72
2023/08/10 02:50:57;;;;;;;5.07;3.38;;;;;;;-140.66;100.00;55571.53;5136620;27;20023;-73
2023/08/10 02:54:42;;;;;;;8.32;3.40;;;;;;;-140.66;100.00;55571.53;5136101;27;20197;-73
2023/08/10 02:58:26;;;;;;;5.50;3.35;;;;;;;-140.66;100.00;55571.53;5137509;27;20023;-71
2023/08/10 03:02:10;;;;;;;5.38;3.30;;;;;;;-140.66;100.00;55571.53;5135976;27;20456;-73
2023/08/10 03:05:55;;;;;;;4.82;3.83;;;;;;;-140.66;100.00;55571.53;5137255;27;20038;-73
2023/08/10 03:09:41;;;;;;;9.82;4.18;;;;;;;-140.66;100.00;55571.53;5136034;27;20019;-73
2023/08/10 03:13:25;;;;;;;7.43;4.85;;;;;;;-140.66;100.00;55571.53;5137418;27;20031;-72
2023/08/10 03:17:10;;;;;;;4.80;4.15;;;;;;;-140.66;100.00;55571.53;5136002;27;20030;-73
2023/08/10 03:20:54;;;;;;;7.28;4.70;;;;;;;-140.66;100.00;55571.53;5136086;27;20042;-73
2023/08/10 03:24:39;;;;;;;8.18;4.90;;;;;;;-140.66;100.00;55571.53;5135276;27;20038;-74
2023/08/10 03:28:23;;;;;;;7.53;4.60;;;;;;;-140.66;100.00;55571.53;5136531;27;20027;-73
2023/08/10 03:32:10;;;;;;;9.30;5.00;;;;;;;-140.66;100.00;55571.53;5136254;27;20101;-73
2023/08/10 03:35:55;;;;;;;8.48;5.22;;;;;;;-140.66;100.00;55571.53;5136459;27;20114;-72
2023/08/10 03:39:39;;;;;;;7.80;4.28;;;;;;;-140.66;100.00;55571.53;5135317;27;20489;-73
2023/08/10 03:43:25;;;;;;;6.20;4.05;;;;;;;-140.66;100.00;55571.53;5135536;27;20106;-73
2023/08/10 03:47:10;;;;;;;5.43;3.60;;;;;;;-140.66;100.00;55571.53;5134326;27;20370;-72
2023/08/10 03:50:54;;;;;;;4.70;3.38;;;;;;;-140.66;100.00;55571.53;5135208;27;20067;-72
2023/08/10 03:54:38;;;;;;;5.65;3.40;;;;;;;-140.66;100.00;55571.53;5135331;27;20113;-72
2023/08/10 03:58:23;;;;;;;10.32;4.38;;;;;;;-140.66;100.00;55571.53;5134867;27;20023;-72
2023/08/10 04:02:08;;;;;;;6.47;3.60;;;;;;;-140.66;100.00;55571.53;5134516;27;20364;-73
2023/08/10 04:05:52;;;;;;;5.85;3.88;;;;;;;-140.66;100.00;55571.53;5135689;27;20325;-73
2023/08/10 04:09:36;;;;;;;8.18;4.65;;;;;;;-140.66;100.00;55571.53;5135376;27;20027;-73
2023/08/10 04:13:21;;;;;;;5.93;4.38;;;;;;;-140.66;100.00;55571.53;5134389;27;20046;-72
2023/08/10 04:17:05;;;;;;;8.73;3.63;;;;;;;-140.66;100.00;55571.53;5135644;27;20087;-72
2023/08/10 04:20:49;;;;;;;8.23;4.32;;;;;;;-140.66;100.00;55571.53;5134555;27;20031;-72
2023/08/10 04:24:34;;;;;;;7.50;4.55;;;;;;;-140.66;100.00;55571.53;5135229;27;20517;-71
2023/08/10 04:28:18;;;;;;;11.63;4.65;;;;;;;-140.66;100.00;55571.53;5135687;27;20035;-72
2023/08/10 04:32:03;;;;;;;9.13;4.30;;;;;;;-140.66;100.00;55571.53;5134914;27;20019;-72
2023/08/10 04:35:47;;;;;;;7.05;4.60;;;;;;;-140.66;100.00;55571.53;5134610;27;20114;-72
2023/08/10 04:39:32;;;;;;;11.10;4.78;;;;;;;-140.66;100.00;55571.53;5133691;27;20118;-72
2023/08/10 04:43:16;;;;;;;7.07;4.43;;;;;;;-140.66;100.00;55571.53;5134418;28;20083;-72
2023/08/10 04:47:01;;;;;;;10.40;5.05;;;;;;;-140.66;100.00;55571.53;5153978;27;20094;-72
2023/08/10 04:50:45;;;;;;;16.20;5.60;;;;;;;-140.66;100.00;55571.53;5141638;27;20067;-72
2023/08/10 04:54:29;;;;;;;9.40;5.05;;;;;;;-140.66;100.00;55571.53;5142355;27;20073;-73
2023/08/10 04:58:13;;;;;;;15.65;5.15;;;;;;;-140.66;100.00;55571.53;5141370;27;20027;-73
2023/08/10 05:01:57;;;;;;;17.85;6.07;;;;;;;-140.66;100.00;55571.53;5141247;27;20023;-73
2023/08/10 05:05:42;;;;;;;12.30;5.28;;;;;;;-140.66;100.00;55571.53;5157958;27;20062;-73
2023/08/10 05:09:26;;;;;;;17.80;5.63;;;;;;;-140.66;100.00;55571.53;5141201;27;20034;-72
2023/08/10 05:13:10;;;;;;;11.50;4.68;;;;;;;-140.66;100.00;55571.53;5140683;27;20030;-73
2023/08/10 05:16:55;;;;;;;10.75;4.40;;;;;;;-140.66;100.00;55571.53;5141786;27;20058;-71
2023/08/10 05:20:39;;;;;;;14.15;4.95;;;;;;;-140.66;100.00;55571.53;5141266;27;20364;-73
2023/08/10 05:24:23;;;;;;;18.40;5.53;;;;;;;-140.66;100.00;55571.53;5141954;27;20026;-73
2023/08/10 05:28:07;;;;;;;25.42;5.43;;;;;;;-140.66;100.00;55571.53;5141603;27;20349;-73
2023/08/10 05:31:51;;;;;;;17.92;5.50;;;;;;;-140.66;100.00;55571.53;5146836;27;20023;-72
2023/08/10 05:35:36;;;;;;;23.65;6.30;;;;;;;-140.66;100.00;55571.53;5146913;27;20079;-72
2023/08/10 05:39:20;;;;;;;22.45;6.43;;;;;;;-140.66;100.00;55571.53;5146393;27;20058;-73
2023/08/10 05:43:05;;;;;;;17.92;5.50;;;;;;;-140.66;100.00;55571.53;5144881;27;20459;-73
2023/08/10 05:46:49;;;;;;;16.02;5.10;;;;;;;-140.66;100.00;55571.53;5144537;27;20027;-73
2023/08/10 05:50:34;;;;;;;10.88;4.70;;;;;;;-140.66;100.00;55571.53;5143159;27;20039;-73
2023/08/10 05:54:18;;;;;;;9.65;4.38;;;;;;;-140.66;100.00;55571.53;5144867;27;20031;-74
2023/08/10 05:58:02;;;;;;;15.15;4.22;;;;;;;-140.66;100.00;55571.53;5136871;27;20493;-73
2023/08/10 06:01:47;;;;;;;5.75;3.55;;;;;;;-140.66;100.00;55571.53;5138102;27;20027;-73
2023/08/10 06:05:32;;;;;;;7.75;3.80;;;;;;;-140.66;100.00;55571.53;5137393;27;20102;-72
2023/08/10 06:09:16;;;;;;;5.35;3.35;;;;;;;-140.66;100.00;55571.53;5137250;27;20390;-71
2023/08/10 06:13:00;;;;;;;9.18;3.90;;;;;;;-140.66;100.00;55571.53;5137100;27;20033;-74
2023/08/10 06:16:45;;;;;;;14.05;3.78;;;;;;;-140.66;100.00;55571.53;5137046;27;20023;-73
2023/08/10 06:20:30;;;;;;;7.05;3.60;;;;;;;-140.66;100.00;55571.53;5136617;27;20027;-74
2023/08/10 06:24:16;;;;;;;6.15;3.10;;;;;;;-140.66;100.00;55571.53;5137331;27;20046;-74
2023/08/10 06:28:00;;;;;;;3.20;2.60;;;;;;;-140.66;100.00;55571.53;5138067;27;20364;-72
2023/08/10 06:31:46;;;;;;;5.03;3.47;;;;;;;-140.66;100.00;55571.53;5137153;27;20030;-73
2023/08/10 06:35:35;;;;;;;5.53;3.40;;;;;;;-140.66;100.00;55571.53;5136590;27;20410;-73
2023/08/10 06:39:19;;;;;;;4.75;3.40;;;;;;;-140.66;100.00;55571.53;5136250;27;20106;-73
2023/08/10 06:43:03;;;;;;;5.85;3.08;;;;;;;-140.66;100.00;55571.53;5136288;27;20083;-73
2023/08/10 06:46:47;;;;;;;10.25;3.13;;;;;;;-140.66;100.00;55571.53;5135966;27;20425;-73
2023/08/10 06:50:32;;;;;;;6.18;3.00;;;;;;;-140.66;100.00;55571.53;5136385;27;20050;-73
2023/08/10 06:54:16;;;;;;;7.90;3.30;;;;;;;-140.66;100.00;55571.53;5137388;27;20027;-73
2023/08/10 06:58:02;;;;;;;13.98;4.63;;;;;;;-140.66;100.00;55571.53;5136880;27;20085;-72
2023/08/10 07:01:46;;;;;;;7.18;3.60;;;;;;;-140.66;100.00;55571.53;5137534;27;20038;-72
2023/08/10 07:05:31;;;;;;;10.05;3.60;;;;;;;-140.66;100.00;55571.53;5135819;27;20076;-73
2023/08/10 07:09:15;;;;;;;8.48;3.60;;;;;;;-140.66;100.00;55571.53;5134130;27;20325;-72
2023/08/10 07:13:00;;;;;;;7.05;3.38;;;;;;;-140.66;100.00;55571.53;5137345;27;20023;-73
2023/08/10 07:16:44;;;;;;;7.75;3.97;;;;;;;-140.66;100.00;55571.53;5135402;27;20101;-72
2023/08/10 07:20:28;;;;;;;13.73;5.05;;;;;;;-140.66;100.00;55571.53;5137600;27;20019;-73
2023/08/10 07:24:12;;;;;;;6.35;3.55;;;;;;;-140.66;100.00;55571.53;5135967;27;20453;-73
2023/08/10 07:27:57;;;;;;;7.78;3.25;;;;;;;-140.66;100.00;55571.53;5135853;27;20031;-73
2023/08/10 07:31:43;;;;;;;7.07;3.28;;;;;;;-140.66;100.00;55571.53;5135505;27;20463;-72
2023/08/10 07:35:27;;;;;;;4.05;3.10;;;;;;;-140.66;100.00;55571.53;5134921;27;20038;-73
2023/08/10 07:39:13;;;;;;;7.60;3.53;;;;;;;-140.66;100.00;55571.53;5135692;27;20110;-72
2023/08/10 07:42:57;;;;;;;6.82;3.13;;;;;;;-140.66;100.00;55571.53;5135225;27;20027;-72
2023/08/10 07:46:43;;;;;;;4.65;3.25;;;;;;;-140.66;100.00;55571.53;5135287;27;20027;-72
2023/08/10 07:50:28;;;;;;;5.93;3.10;;;;;;;-140.66;100.00;55571.53;5135255;27;20035;-73
2023/08/10 07:54:12;;;;;;;7.22;3.33;;;;;;;-140.66;100.00;55571.53;5134841;27;20410;-72
2023/08/10 07:57:56;;;;;;;3.97;3.13;;;;;;;-140.66;100.00;55571.53;5134654;27;20087;-73
2023/08/10 08:01:41;;;;;;;11.77;5.18;;;;;;;-140.66;100.00;55571.53;5134510;27;20109;-72
2023/08/10 08:05:25;;;;;;;10.02;3.88;;;;;;;-140.66;100.00;55571.53;5135984;27;20118;-72
2023/08/10 08:09:12;;;;;;;17.30;4.90;;;;;;;-140.66;100.00;55571.53;5134388;27;20027;-73
2023/08/10 08:12:56;;;;;;;6.93;3.28;;;;;;;-140.66;100.00;55571.53;5134089;27;20449;-73
2023/08/10 08:16:40;;;;;;;13.05;4.30;;;;;;;-140.66;100.00;55571.53;5134903;27;20019;-72
2023/08/10 08:20:24;;;;;;;226.88;31.55;;;;;;;-140.66;100.00;55571.53;5134433;27;20110;-74
2023/08/10 08:24:08;;;;;;;6.78;3.20;;;;;;;-140.66;100.00;55571.53;5135286;27;20024;-74
2023/08/10 08:27:53;;;;;;;5.45;3.15;;;;;;;-140.66;100.00;55571.53;5135428;27;20075;-73
2023/08/10 08:31:37;;;;;;;5.07;3.20;;;;;;;-140.66;100.00;55571.53;5135799;27;20117;-72
2023/08/10 08:35:21;;;;;;;5.00;2.90;;;;;;;-140.66;100.00;55571.53;5134738;27;20038;-72
2023/08/10 08:39:06;;;;;;;10.13;3.65;;;;;;;-140.66;100.00;55571.53;5134380;27;20055;-73
2023/08/10 08:42:51;;;;;;;8.63;3.75;;;;;;;-140.66;100.00;55571.53;5143744;27;20107;-73
2023/08/10 08:46:42;;;;;;;7.53;3.60;;;;;;;-140.66;100.00;55571.53;5135977;28;20034;-73
2023/08/10 08:50:27;;;;;;;23.35;4.55;;;;;;;-140.66;100.00;55571.53;5135297;28;20439;-72
2023/08/10 08:54:12;;;;;;;5.60;3.65;;;;;;;-140.66;100.00;55571.53;5136123;28;20452;-73
2023/08/10 08:57:56;;;;;;;5.47;3.60;;;;;;;-140.66;100.00;55571.53;5150399;28;20465;-73
2023/08/10 09:01:48;;;;;;;8.65;3.30;;;;;;;-140.66;100.00;55571.53;5151750;28;20027;-72
2023/08/10 09:05:32;;;;;;;16.23;4.47;;;;;;;-140.66;100.00;55571.53;5137591;28;20338;-73
2023/08/10 09:09:17;;;;;;;5.85;3.85;;;;;;;-140.66;100.00;55571.53;5136120;28;20114;-74
2023/08/10 09:13:22;;;;;;;11.10;4.18;;;;;;;-140.66;100.00;55571.53;5135717;28;20023;-73
2023/08/10 09:17:11;;;;;;;7.07;3.95;;;;;;;-140.66;100.00;55571.53;5133928;28;20115;-73
2023/08/10 09:21:05;;;;;;;5.10;3.75;;;;;;;-140.66;100.00;55571.53;5135745;28;20034;-73
2023/08/10 09:24:52;;;;;;;5.40;3.78;;;;;;;-140.66;100.00;55571.53;5143968;28;20023;-72
2023/08/10 09:28:37;;;;;;;5.30;3.97;;;;;;;-140.66;100.00;55571.53;5147494;28;20038;-73
2023/08/10 09:32:25;;;;;;;4.40;4.00;;;;;;;-140.66;100.00;55571.53;5150627;27;20378;-71
2023/08/10 09:36:21;;;;;;;3.97;3.20;;;;;;;-140.66;100.00;55571.53;5153353;27;20043;-72
2023/08/10 09:40:15;;;;;;;11.25;4.25;;;;;;;-140.66;100.00;55571.53;5152385;27;20023;-71
2023/08/10 09:44:07;;;;;;;5.90;5.00;;;;;;;-140.66;100.00;55571.53;5150036;27;20050;-73
2023/08/10 09:47:55;;;;;;;7.90;5.82;;;;;;;-140.66;100.00;55571.53;5154925;27;20068;-71
2023/08/10 09:51:43;;;;;;;7.07;6.25;;;;;;;-140.66;100.00;55571.53;5154134;27;20031;-72
2023/08/10 09:55:28;;;;;;;16.95;6.75;;;;;;;-140.66;100.00;55571.53;5150551;27;20037;-76
2023/08/10 09:59:13;;;;;;;6.03;5.03;;;;;;;-140.66;100.00;55571.53;5144572;27;20483;-73
2023/08/10 10:02:57;;;;;;;7.20;5.10;;;;;;;-140.66;100.00;55571.53;5151962;27;20046;-73
2023/08/10 10:06:42;;;;;;;11.57;6.13;;;;;;;-140.66;100.00;55571.53;5145890;27;20087;-73
2023/08/10 10:10:29;;;;;;;5.75;5.07;;;;;;;-140.66;100.00;55571.53;5151814;27;20023;-71
2023/08/10 10:14:14;;;;;;;6.20;5.15;;;;;;;-140.66;100.00;55571.53;5158338;27;20019;-72
2023/08/10 10:18:00;;;;;;;5.72;5.13;;;;;;;-140.66;100.00;55571.53;5155194;27;20023;-72
2023/08/10 10:21:45;;;;;;;7.13;5.07;;;;;;;-140.66;100.00;55571.53;5159110;27;20044;-72
2023/08/10 10:25:30;;;;;;;8.30;5.00;;;;;;;-140.66;100.00;55571.53;5138858;27;20027;-73
2023/08/10 10:29:16;;;;;;;7.72;5.50;;;;;;;-140.66;100.00;55571.53;5138027;27;20460;-72
2023/08/10 10:33:16;;;;;;;5.95;4.60;;;;;;;-140.66;100.00;55571.53;5137907;27;20059;-73
2023/08/10 10:37:21;;;;;;;5.90;4.57;;;;;;;-140.66;100.00;55571.53;5137980;27;20041;-75
2023/08/10 10:41:28;;;;;;;6.93;4.50;;;;;;;-140.66;100.00;55571.53;5147216;27;20046;-72
2023/08/10 10:45:14;;;;;;;6.00;3.75;;;;;;;-140.66;100.00;55571.53;5152194;27;20088;-73
2023/08/10 10:49:06;;;;;;;4.43;3.55;;;;;;;-140.66;100.00;55571.53;5149642;27;20107;-72
2023/08/10 10:52:56;;;;;;;6.25;4.15;;;;;;;-140.66;100.00;55571.53;5146910;27;20023;-72
2023/08/10 10:56:41;;;;;;;4.45;4.03;;;;;;;-140.66;100.00;55571.53;5151835;27;20019;-72
2023/08/10 11:00:26;;;;;;;4.97;3.60;;;;;;;-140.66;100.00;55571.53;5153394;27;20019;-72
2023/08/10 11:04:11;;;;;;;4.55;3.72;;;;;;;-140.66;100.00;55571.53;5149899;27;20019;-73
2023/08/10 11:08:03;;;;;;;10.63;4.15;;;;;;;-140.66;100.00;55571.53;5151335;27;20026;-72
2023/08/10 11:11:48;;;;;;;4.50;3.60;;;;;;;-140.66;100.00;55571.53;5144400;27;20027;-71
2023/08/10 11:15:33;;;;;;;6.00;3.78;;;;;;;-140.66;100.00;55571.53;5142493;27;20062;-72
2023/08/10 11:19:18;;;;;;;4.57;3.80;;;;;;;-140.66;100.00;55571.53;5140109;27;20041;-73
2023/08/10 11:23:03;;;;;;;4.40;3.20;;;;;;;-140.66;100.00;55571.53;5143644;27;20031;-73
2023/08/10 11:26:49;;;;;;;7.80;3.67;;;;;;;-140.66;100.00;55571.53;5154610;27;20031;-73
2023/08/10 11:30:34;;;;;;;5.75;3.20;;;;;;;-140.66;100.00;55571.53;5140662;27;20388;-73
2023/08/10 11:34:22;;;;;;;4.10;3.55;;;;;;;-140.66;100.00;55571.53;5141926;27;20048;-72
2023/08/10 11:38:06;;;;;;;3.22;2.92;;;;;;;-140.66;100.00;55571.53;5150879;27;20361;-72
2023/08/10 11:41:54;;;;;;;21.80;4.57;;;;;;;-140.66;100.00;55571.53;5138108;27;20023;-73
2023/08/10 11:45:42;;;;;;;3.80;2.95;;;;;;;-140.66;100.00;55571.53;5137062;27;20361;-73
2023/08/10 11:49:27;;;;;;;3.65;2.80;;;;;;;-140.66;100.00;55571.53;5135890;27;20091;-73
2023/08/10 11:53:14;;;;;;;3.80;2.92;;;;;;;-140.66;100.00;55571.53;5134924;27;20361;-72
2023/08/10 11:57:07;;;;;;;3.35;2.90;;;;;;;-140.66;100.00;55571.53;5135229;27;20027;-72
2023/08/10 12:00:53;;;;;;;3.28;2.95;;;;;;;-140.66;100.00;55571.53;5135058;27;20080;-72
2023/08/10 12:04:45;;;;;;;3.65;2.90;;;;;;;-140.66;100.00;55571.53;5135660;27;20026;-72
2023/08/10 12:08:30;;;;;;;6.93;3.17;;;;;;;-140.66;100.00;55571.53;5136369;27;20065;-73
2023/08/10 12:12:18;;;;;;;4.85;3.55;;;;;;;-140.66;100.00;55571.53;5135749;27;20113;-73
2023/08/10 12:16:11;;;;;;;3.97;2.60;;;;;;;-140.66;100.00;55571.53;5136386;27;20058;-72
2023/08/10 12:19:56;;;;;;;4.65;2.70;;;;;;;-140.66;100.00;55571.53;5134998;27;20023;-72
2023/08/10 12:23:40;;;;;;;3.92;2.50;;;;;;;-140.66;100.00;55571.53;5134740;27;20471;-72
2023/08/10 12:27:24;;;;;;;6.22;2.90;;;;;;;-140.66;100.00;55571.53;5135393;27;20039;-73
2023/08/10 12:31:09;;;;;;;5.60;2.53;;;;;;;-140.66;100.00;55571.53;5135658;27;20366;-72
2023/08/10 12:34:53;;;;;;;4.25;2.72;;;;;;;-140.66;100.00;55571.53;5135593;27;20384;-73
2023/08/10 12:38:37;;;;;;;6.93;2.40;;;;;;;-140.66;100.00;55571.53;5135417;27;20023;-73
2023/08/10 12:42:21;;;;;;;4.40;2.38;;;;;;;-140.66;100.00;55571.53;5135257;27;20041;-73
2023/08/10 12:46:06;;;;;;;5.28;2.45;;;;;;;-140.66;100.00;55571.53;5135186;28;20023;-72
2023/08/10 12:49:51;;;;;;;4.05;2.40;;;;;;;-140.66;100.00;55571.53;5134273;28;20047;-73
2023/08/10 12:53:36;;;;;;;3.20;2.50;;;;;;;-140.66;100.00;55571.53;5135642;28;20410;-73
2023/08/10 12:57:20;;;;;;;2.63;2.42;;;;;;;-140.66;100.00;55571.53;5134618;28;20030;-73
2023/08/10 13:01:15;;;;;;;3.95;2.65;;;;;;;-140.66;100.00;55571.53;5134388;28;20373;-73
2023/08/10 13:04:59;;;;;;;6.30;2.55;;;;;;;-140.66;100.00;55571.53;5134523;28;20113;-72
2023/08/10 13:08:48;;;;;;;3.55;2.40;;;;;;;-140.66;100.00;55571.53;5139183;27;20131;-72
2023/08/10 13:12:32;;;;;;;4.82;2.38;;;;;;;-140.66;100.00;55571.53;5139188;27;20030;-73
2023/08/10 13:16:16;;;;;;;8.10;2.67;;;;;;;-140.66;100.00;55571.53;5138176;27;20042;-73
2023/08/10 13:20:02;;;;;;;10.18;2.53;;;;;;;-140.66;100.00;55571.53;5153434;27;20062;-74
2023/08/10 13:23:47;;;;;;;7.05;2.67;;;;;;;-140.66;100.00;55571.53;5143503;27;20035;-73
2023/08/10 13:27:31;;;;;;;8.00;2.65;;;;;;;-140.66;100.00;55571.53;5156688;27;20046;-72
2023/08/10 13:31:15;;;;;;;18.10;4.05;;;;;;;-140.66;100.00;55571.53;5154642;27;20019;-71
2023/08/10 13:34:59;;;;;;;9.48;4.00;;;;;;;-140.66;100.00;55571.53;5137958;27;20042;-73
2023/08/10 13:38:44;;;;;;;13.23;4.40;;;;;;;-140.66;100.00;55571.53;5138503;27;20023;-73
2023/08/10 13:42:29;;;;;;;11.68;4.82;;;;;;;-140.66;100.00;55571.53;5137810;27;20361;-73
2023/08/10 13:46:14;;;;;;;13.82;4.60;;;;;;;-140.66;100.00;55571.53;5137696;27;20043;-73
2023/08/10 13:49:58;;;;;;;13.05;4.28;;;;;;;-140.66;100.00;55571.53;5138604;27;20091;-73
2023/08/10 13:53:42;;;;;;;14.95;4.68;;;;;;;-140.66;100.00;55571.53;5144553;27;20023;-72
2023/08/10 13:57:26;;;;;;;8.27;4.35;;;;;;;-140.66;100.00;55571.53;5138250;27;20019;-74
2023/08/10 14:01:11;;;;;;;7.95;3.95;;;;;;;-140.66;100.00;55571.53;5137404;27;20050;-73
2023/08/10 14:04:55;;;;;;;8.07;4.00;;;;;;;-140.66;100.00;55571.53;5137851;27;20058;-73
2023/08/10 14:08:39;;;;;;;7.15;3.90;;;;;;;-140.66;100.00;55571.53;5137948;27;20360;-72
2023/08/10 14:12:24;;;;;;;7.93;4.03;;;;;;;-140.66;100.00;55571.53;5138092;27;20459;-72
2023/08/10 14:16:08;;;;;;;7.85;3.95;;;;;;;-140.66;100.00;55571.53;5136613;27;20027;-72
2023/08/10 14:19:52;;;;;;;5.45;3.90;;;;;;;-140.66;100.00;55571.53;5136098;27;20019;-74
2023/08/10 14:23:36;;;;;;;14.52;3.92;;;;;;;-140.66;100.00;55571.53;5136945;27;20035;-72
2023/08/10 14:27:21;;;;;;;6.90;3.90;;;;;;;-140.66;100.00;55571.53;5136497;27;20119;-72
2023/08/10 14:31:05;;;;;;;5.53;3.70;;;;;;;-140.66;100.00;55571.53;5137731;27;20032;-71
2023/08/10 14:34:51;;;;;;;6.63;4.00;;;;;;;-140.66;100.00;55571.53;5137432;27;20035;-72
2023/08/10 14:38:35;;;;;;;8.88;3.70;;;;;;;-140.66;100.00;55571.53;5136683;27;20106;-73
2023/08/10 14:42:19;;;;;;;6.55;3.85;;;;;;;-140.66;100.00;55571.53;5136625;27;20037;-73
2023/08/10 14:46:04;;;;;;;7.65;3.88;;;;;;;-140.66;100.00;55571.53;5136545;27;20026;-72
2023/08/10 14:49:49;;;;;;;6.75;3.58;;;;;;;-140.66;100.00;55571.53;5136274;27;20043;-72
2023/08/10 14:53:33;;;;;;;6.55;4.00;;;;;;;-140.66;100.00;55571.53;5136967;27;20083;-73
2023/08/10 14:57:17;;;;;;;6.38;4.00;;;;;;;-140.66;100.00;55571.53;5136949;27;20023;-72
2023/08/10 15:01:02;;;;;;;6.35;3.53;;;;;;;-140.66;100.00;55571.53;5136695;27;20031;-72
2023/08/10 15:04:46;;;;;;;6.22;3.83;;;;;;;-140.66;100.00;55571.53;5135520;27;20030;-73
2023/08/10 15:08:31;;;;;;;4.50;3.75;;;;;;;-140.66;100.00;55571.53;5138106;27;20255;-72
2023/08/10 15:12:15;;;;;;;10.23;4.60;;;;;;;-140.66;100.00;55571.53;5137043;27;20034;-72
2023/08/10 15:16:00;;;;;;;7.00;4.30;;;;;;;-140.66;100.00;55571.53;5135323;27;20027;-72
2023/08/10 15:19:44;;;;;;;9.40;4.68;;;;;;;-140.66;100.00;55571.53;5135136;27;20034;-72
2023/08/10 15:23:28;;;;;;;9.18;4.30;;;;;;;-140.66;100.00;55571.53;5136322;27;20037;-72
2023/08/10 15:27:12;;;;;;;7.78;5.43;;;;;;;-140.66;100.00;55571.53;5135846;27;20031;-73
2023/08/10 15:30:57;;;;;;;6.10;5.10;;;;;;;-140.66;100.00;55571.53;5134518;27;20027;-73
2023/08/10 15:34:41;;;;;;;6.07;5.28;;;;;;;-140.66;100.00;55571.53;5135303;27;20033;-73
2023/08/10 15:38:02;;;;;;;6.47;5.78;;;;;;;-140.66;100.00;55571.53;5135032;27;20457;-72
2023/08/10 15:40:52;;;;;;;7.97;6.60;;;;;;;-140.66;100.00;55571.53;5135260;27;20031;-72
2023/08/10 15:43:40;;;;;;;9.18;7.22;;;;;;;-140.66;100.00;55571.53;5136092;27;20052;-73
2023/08/10 15:46:28;;;;;;;8.80;6.82;;;;;;;-140.66;100.00;55571.53;5135401;27;20500;-72
2023/08/10 15:49:15;;;;;;;9.18;7.22;;;;;;;-140.66;100.00;55571.53;5136212;27;20127;-72
2023/08/10 15:52:03;;;;;;;10.40;7.43;;;;;;;-140.66;100.00;55571.53;5134857;27;20023;-73
2023/08/10 15:54:52;;;;;;;8.80;7.32;;;;;;;-140.66;100.00;55571.53;5134994;27;20053;-74
2023/08/10 15:57:39;;;;;;;10.57;7.65;;;;;;;-140.66;100.00;55571.53;5134940;27;20027;-72
2023/08/10 16:00:27;;;;;;;12.25;8.00;;;;;;;-140.66;100.00;55571.53;5135891;27;20023;-73
2023/08/10 16:03:16;;;;;;;8.73;7.03;;;;;;;-140.66;100.00;55571.53;5135628;27;20058;-73
2023/08/10 16:06:04;;;;;;;9.80;7.43;;;;;;;-140.66;100.00;55571.53;5134435;27;20110;-72
2023/08/10 16:08:52;;;;;;;9.70;7.40;;;;;;;-140.66;100.00;55571.53;5135853;27;20100;-73
2023/08/10 16:11:41;;;;;;;9.43;6.97;;;;;;;-140.66;100.00;55571.53;5135430;27;20090;-73
2023/08/10 16:14:27;;;;;;;9.50;7.35;;;;;;;-140.66;100.00;55571.53;5134691;27;20096;-72
2023/08/10 16:17:15;;;;;;;8.75;6.95;;;;;;;-140.66;100.00;55571.53;5134484;27;20165;-74
2023/08/10 16:20:04;;;;;;;10.10;6.78;;;;;;;-140.66;100.00;55571.53;5134759;27;20037;-72
2023/08/10 16:22:52;;;;;;;9.63;7.05;;;;;;;-140.66;100.00;55571.53;5134601;27;20019;-73
2023/08/10 16:25:41;;;;;;;9.63;7.43;;;;;;;-140.66;100.00;55571.53;5135704;27;20084;-74
2023/08/10 16:28:29;;;;;;;9.45;6.68;;;;;;;-140.66;100.00;55571.53;5134078;27;20038;-72
2023/08/10 16:31:17;;;;;;;11.05;7.65;;;;;;;-140.66;100.00;55571.53;5136015;27;20041;-72
2023/08/10 16:34:05;;;;;;;9.93;7.80;;;;;;;-140.66;100.00;55571.53;5135183;27;20046;-72
2023/08/10 16:36:53;;;;;;;10.75;7.53;;;;;;;-140.66;100.00;55571.53;5134996;27;20024;-72
2023/08/10 16:39:42;;;;;;;15.18;7.70;;;;;;;-140.66;100.00;55571.53;5133689;27;20030;-73